sensor_id;sensor_type;location;lat;lon;timestamp;P1;durP1;ratioP1;P2;durP2;ratioP2
16784;SDS011;8509;52.178;5.404;2023-10-19T00:00:49;7.13;;;3.70;;
16784;SDS011;8509;52.178;5.404;2023-10-19T00:03:18;8.23;;;3.70;;
16784;SDS011;8509;52.178;5.404;2023-10-19T00:05:45;8.88;;;3.97;;
16784;SDS011;8509;52.178;5.404;2023-10-19T00:08:12;6.03;;;3.72;;
16784;SDS011;8509;52.178;5.404;2023-10-19T00:10:38;4.78;;;3.85;;
16784;SDS011;8509;52.178;5.404;2023-10-19T00:13:07;5.97;;;3.97;;
16784;SDS011;8509;52.178;5.404;2023-10-19T00:15:37;8.18;;;4.10;;
16784;SDS011;8509;52.178;5.404;2023-10-19T00:18:12;7.70;;;5.07;;
16784;SDS011;8509;52.178;5.404;2023-10-19T00:20:44;6.43;;;4.10;;
16784;SDS011;8509;52.178;5.404;2023-10-19T00:23:17;8.43;;;4.93;;
16784;SDS011;8509;52.178;5.404;2023-10-19T00:25:54;8.27;;;4.95;;
16784;SDS011;8509;52.178;5.404;2023-10-19T00:28:20;8.45;;;4.97;;
16784;SDS011;8509;52.178;5.404;2023-10-19T00:30:47;4.97;;;3.58;;
16784;SDS011;8509;52.178;5.404;2023-10-19T00:33:16;7.85;;;4.82;;
16784;SDS011;8509;52.178;5.404;2023-10-19T00:35:46;7.18;;;4.57;;
16784;SDS011;8509;52.178;5.404;2023-10-19T00:38:28;11.05;;;5.78;;
16784;SDS011;8509;52.178;5.404;2023-10-19T00:40:59;8.82;;;5.50;;
16784;SDS011;8509;52.178;5.404;2023-10-19T00:43:34;7.20;;;5.40;;
16784;SDS011;8509;52.178;5.404;2023-10-19T00:46:11;8.27;;;5.28;;
16784;SDS011;8509;52.178;5.404;2023-10-19T00:48:44;8.73;;;5.88;;
16784;SDS011;8509;52.178;5.404;2023-10-19T00:51:19;9.30;;;5.28;;
16784;SDS011;8509;52.178;5.404;2023-10-19T00:53:59;6.78;;;4.97;;
16784;SDS011;8509;52.178;5.404;2023-10-19T00:56:34;8.32;;;5.57;;
16784;SDS011;8509;52.178;5.404;2023-10-19T00:59:01;8.30;;;4.72;;
16784;SDS011;8509;52.178;5.404;2023-10-19T01:01:39;10.45;;;4.90;;
16784;SDS011;8509;52.178;5.404;2023-10-19T01:04:12;9.68;;;5.40;;
16784;SDS011;8509;52.178;5.404;2023-10-19T01:06:40;9.60;;;5.07;;
16784;SDS011;8509;52.178;5.404;2023-10-19T01:09:09;8.73;;;5.25;;
16784;SDS011;8509;52.178;5.404;2023-10-19T01:11:39;7.53;;;4.45;;
16784;SDS011;8509;52.178;5.404;2023-10-19T01:14:18;10.63;;;5.90;;
16784;SDS011;8509;52.178;5.404;2023-10-19T01:16:46;10.18;;;5.68;;
16784;SDS011;8509;52.178;5.404;2023-10-19T01:19:13;10.88;;;6.22;;
16784;SDS011;8509;52.178;5.404;2023-10-19T01:21:43;10.85;;;5.38;;
16784;SDS011;8509;52.178;5.404;2023-10-19T01:24:18;10.95;;;4.88;;
16784;SDS011;8509;52.178;5.404;2023-10-19T01:26:51;11.50;;;5.22;;
16784;SDS011;8509;52.178;5.404;2023-10-19T01:29:18;10.20;;;6.15;;
16784;SDS011;8509;52.178;5.404;2023-10-19T01:31:52;10.30;;;6.22;;
16784;SDS011;8509;52.178;5.404;2023-10-19T01:34:31;9.55;;;6.43;;
16784;SDS011;8509;52.178;5.404;2023-10-19T01:36:58;8.50;;;5.95;;
16784;SDS011;8509;52.178;5.404;2023-10-19T01:39:29;7.63;;;5.53;;
16784;SDS011;8509;52.178;5.404;2023-10-19T01:42:07;10.93;;;6.38;;
16784;SDS011;8509;52.178;5.404;2023-10-19T01:44:34;9.38;;;6.63;;
16784;SDS011;8509;52.178;5.404;2023-10-19T01:47:01;10.98;;;5.80;;
16784;SDS011;8509;52.178;5.404;2023-10-19T01:49:27;10.60;;;6.30;;
16784;SDS011;8509;52.178;5.404;2023-10-19T01:51:55;11.48;;;7.03;;
16784;SDS011;8509;52.178;5.404;2023-10-19T01:54:22;9.38;;;5.68;;
16784;SDS011;8509;52.178;5.404;2023-10-19T01:56:52;10.38;;;5.90;;
16784;SDS011;8509;52.178;5.404;2023-10-19T01:59:22;13.88;;;7.18;;
16784;SDS011;8509;52.178;5.404;2023-10-19T02:01:48;12.45;;;7.07;;
16784;SDS011;8509;52.178;5.404;2023-10-19T02:04:14;12.50;;;6.68;;
16784;SDS011;8509;52.178;5.404;2023-10-19T02:06:40;14.77;;;6.78;;
16784;SDS011;8509;52.178;5.404;2023-10-19T02:09:10;10.82;;;6.32;;
16784;SDS011;8509;52.178;5.404;2023-10-19T02:11:43;11.00;;;7.00;;
16784;SDS011;8509;52.178;5.404;2023-10-19T02:14:12;10.63;;;6.38;;
16784;SDS011;8509;52.178;5.404;2023-10-19T02:16:44;10.65;;;6.63;;
16784;SDS011;8509;52.178;5.404;2023-10-19T02:19:21;11.23;;;6.97;;
16784;SDS011;8509;52.178;5.404;2023-10-19T02:21:51;9.52;;;5.82;;
16784;SDS011;8509;52.178;5.404;2023-10-19T02:24:19;10.55;;;6.10;;
16784;SDS011;8509;52.178;5.404;2023-10-19T02:26:45;10.55;;;6.47;;
16784;SDS011;8509;52.178;5.404;2023-10-19T02:29:16;10.60;;;7.13;;
16784;SDS011;8509;52.178;5.404;2023-10-19T02:31:42;8.38;;;5.63;;
16784;SDS011;8509;52.178;5.404;2023-10-19T02:34:09;10.50;;;6.55;;
16784;SDS011;8509;52.178;5.404;2023-10-19T02:36:37;14.00;;;6.07;;
16784;SDS011;8509;52.178;5.404;2023-10-19T02:39:05;9.70;;;6.53;;
16784;SDS011;8509;52.178;5.404;2023-10-19T02:41:38;9.02;;;5.93;;
16784;SDS011;8509;52.178;5.404;2023-10-19T02:44:15;10.18;;;6.28;;
16784;SDS011;8509;52.178;5.404;2023-10-19T02:46:41;7.93;;;4.85;;
16784;SDS011;8509;52.178;5.404;2023-10-19T02:49:07;9.85;;;5.60;;
16784;SDS011;8509;52.178;5.404;2023-10-19T02:51:37;7.85;;;5.03;;
16784;SDS011;8509;52.178;5.404;2023-10-19T02:54:05;9.75;;;6.72;;
16784;SDS011;8509;52.178;5.404;2023-10-19T02:56:32;9.65;;;5.15;;
16784;SDS011;8509;52.178;5.404;2023-10-19T02:59:01;12.02;;;6.55;;
16784;SDS011;8509;52.178;5.404;2023-10-19T03:01:29;7.40;;;4.88;;
16784;SDS011;8509;52.178;5.404;2023-10-19T03:03:59;8.18;;;4.93;;
16784;SDS011;8509;52.178;5.404;2023-10-19T03:06:29;10.02;;;5.93;;
16784;SDS011;8509;52.178;5.404;2023-10-19T03:08:59;8.63;;;6.15;;
16784;SDS011;8509;52.178;5.404;2023-10-19T03:11:38;7.40;;;4.43;;
16784;SDS011;8509;52.178;5.404;2023-10-19T03:14:09;10.90;;;6.40;;
16784;SDS011;8509;52.178;5.404;2023-10-19T03:16:37;13.35;;;5.22;;
16784;SDS011;8509;52.178;5.404;2023-10-19T03:19:05;9.00;;;5.20;;
16784;SDS011;8509;52.178;5.404;2023-10-19T03:21:32;7.88;;;4.45;;
16784;SDS011;8509;52.178;5.404;2023-10-19T03:24:06;8.82;;;4.82;;
16784;SDS011;8509;52.178;5.404;2023-10-19T03:26:37;10.05;;;4.63;;
16784;SDS011;8509;52.178;5.404;2023-10-19T03:29:08;12.25;;;5.63;;
16784;SDS011;8509;52.178;5.404;2023-10-19T03:31:40;7.63;;;5.55;;
16784;SDS011;8509;52.178;5.404;2023-10-19T03:34:09;7.30;;;4.68;;
16784;SDS011;8509;52.178;5.404;2023-10-19T03:36:37;6.03;;;4.28;;
16784;SDS011;8509;52.178;5.404;2023-10-19T03:39:03;7.55;;;4.93;;
16784;SDS011;8509;52.178;5.404;2023-10-19T03:41:40;9.07;;;5.25;;
16784;SDS011;8509;52.178;5.404;2023-10-19T03:44:12;11.45;;;4.68;;
16784;SDS011;8509;52.178;5.404;2023-10-19T03:46:45;11.05;;;6.07;;
16784;SDS011;8509;52.178;5.404;2023-10-19T03:49:25;6.30;;;4.07;;
16784;SDS011;8509;52.178;5.404;2023-10-19T03:52:01;9.95;;;4.57;;
16784;SDS011;8509;52.178;5.404;2023-10-19T03:54:36;7.95;;;4.53;;
16784;SDS011;8509;52.178;5.404;2023-10-19T03:57:06;5.63;;;3.72;;
16784;SDS011;8509;52.178;5.404;2023-10-19T03:59:38;8.27;;;4.50;;
16784;SDS011;8509;52.178;5.404;2023-10-19T04:02:04;6.72;;;4.35;;
16784;SDS011;8509;52.178;5.404;2023-10-19T04:04:41;8.00;;;4.53;;
16784;SDS011;8509;52.178;5.404;2023-10-19T04:07:13;8.73;;;4.88;;
16784;SDS011;8509;52.178;5.404;2023-10-19T04:09:45;8.13;;;4.22;;
16784;SDS011;8509;52.178;5.404;2023-10-19T04:12:36;7.57;;;4.00;;
16784;SDS011;8509;52.178;5.404;2023-10-19T04:15:07;5.38;;;3.33;;
16784;SDS011;8509;52.178;5.404;2023-10-19T04:17:41;7.47;;;3.97;;
16784;SDS011;8509;52.178;5.404;2023-10-19T04:20:07;6.18;;;3.78;;
16784;SDS011;8509;52.178;5.404;2023-10-19T04:22:46;13.13;;;4.63;;
16784;SDS011;8509;52.178;5.404;2023-10-19T04:25:13;4.40;;;3.38;;
16784;SDS011;8509;52.178;5.404;2023-10-19T04:27:41;6.35;;;3.92;;
16784;SDS011;8509;52.178;5.404;2023-10-19T04:30:08;6.93;;;3.58;;
16784;SDS011;8509;52.178;5.404;2023-10-19T04:32:44;5.15;;;2.83;;
16784;SDS011;8509;52.178;5.404;2023-10-19T04:35:11;5.50;;;3.75;;
16784;SDS011;8509;52.178;5.404;2023-10-19T04:37:55;4.22;;;2.60;;
16784;SDS011;8509;52.178;5.404;2023-10-19T04:40:22;6.88;;;3.95;;
16784;SDS011;8509;52.178;5.404;2023-10-19T04:42:48;5.25;;;2.83;;
16784;SDS011;8509;52.178;5.404;2023-10-19T04:45:18;5.97;;;3.92;;
16784;SDS011;8509;52.178;5.404;2023-10-19T04:47:44;10.48;;;3.70;;
16784;SDS011;8509;52.178;5.404;2023-10-19T04:50:11;3.25;;;2.33;;
16784;SDS011;8509;52.178;5.404;2023-10-19T04:52:37;4.75;;;2.53;;
16784;SDS011;8509;52.178;5.404;2023-10-19T04:55:03;3.50;;;2.30;;
16784;SDS011;8509;52.178;5.404;2023-10-19T04:57:30;5.05;;;2.75;;
16784;SDS011;8509;52.178;5.404;2023-10-19T04:59:56;4.50;;;1.85;;
16784;SDS011;8509;52.178;5.404;2023-10-19T05:02:22;2.88;;;1.90;;
16784;SDS011;8509;52.178;5.404;2023-10-19T05:04:49;10.80;;;2.85;;
16784;SDS011;8509;52.178;5.404;2023-10-19T05:07:15;5.43;;;2.22;;
16784;SDS011;8509;52.178;5.404;2023-10-19T05:09:44;3.13;;;1.65;;
16784;SDS011;8509;52.178;5.404;2023-10-19T05:12:10;4.50;;;2.35;;
16784;SDS011;8509;52.178;5.404;2023-10-19T05:14:36;2.58;;;1.95;;
16784;SDS011;8509;52.178;5.404;2023-10-19T05:17:03;2.65;;;1.83;;
16784;SDS011;8509;52.178;5.404;2023-10-19T05:19:32;2.42;;;1.52;;
16784;SDS011;8509;52.178;5.404;2023-10-19T05:22:01;5.50;;;1.35;;
16784;SDS011;8509;52.178;5.404;2023-10-19T05:24:28;2.03;;;1.58;;
16784;SDS011;8509;52.178;5.404;2023-10-19T05:26:54;2.58;;;1.63;;
16784;SDS011;8509;52.178;5.404;2023-10-19T05:29:20;1.58;;;1.15;;
16784;SDS011;8509;52.178;5.404;2023-10-19T05:31:47;1.70;;;1.35;;
16784;SDS011;8509;52.178;5.404;2023-10-19T05:34:18;1.48;;;1.25;;
16784;SDS011;8509;52.178;5.404;2023-10-19T05:36:45;4.22;;;1.08;;
16784;SDS011;8509;52.178;5.404;2023-10-19T05:39:13;2.25;;;1.35;;
16784;SDS011;8509;52.178;5.404;2023-10-19T05:41:39;2.25;;;1.33;;
16784;SDS011;8509;52.178;5.404;2023-10-19T05:44:05;3.35;;;1.48;;
16784;SDS011;8509;52.178;5.404;2023-10-19T05:46:31;2.15;;;1.40;;
16784;SDS011;8509;52.178;5.404;2023-10-19T05:48:57;0.98;;;0.85;;
16784;SDS011;8509;52.178;5.404;2023-10-19T05:51:22;6.70;;;2.60;;
16784;SDS011;8509;52.178;5.404;2023-10-19T05:53:48;1.35;;;1.20;;
16784;SDS011;8509;52.178;5.404;2023-10-19T05:56:16;1.40;;;0.77;;
16784;SDS011;8509;52.178;5.404;2023-10-19T05:58:42;0.77;;;0.70;;
16784;SDS011;8509;52.178;5.404;2023-10-19T06:01:08;2.22;;;0.90;;
16784;SDS011;8509;52.178;5.404;2023-10-19T06:03:34;2.88;;;0.80;;
16784;SDS011;8509;52.178;5.404;2023-10-19T06:05:59;1.20;;;0.70;;
16784;SDS011;8509;52.178;5.404;2023-10-19T06:08:25;2.13;;;0.98;;
16784;SDS011;8509;52.178;5.404;2023-10-19T06:10:52;1.23;;;0.80;;
16784;SDS011;8509;52.178;5.404;2023-10-19T06:13:18;1.33;;;0.88;;
16784;SDS011;8509;52.178;5.404;2023-10-19T06:15:45;1.60;;;1.00;;
16784;SDS011;8509;52.178;5.404;2023-10-19T06:18:11;2.85;;;0.98;;
16784;SDS011;8509;52.178;5.404;2023-10-19T06:20:42;5.25;;;1.30;;
16784;SDS011;8509;52.178;5.404;2023-10-19T06:23:09;0.77;;;0.75;;
16784;SDS011;8509;52.178;5.404;2023-10-19T06:25:36;2.70;;;1.00;;
16784;SDS011;8509;52.178;5.404;2023-10-19T06:28:03;2.28;;;1.25;;
16784;SDS011;8509;52.178;5.404;2023-10-19T06:30:29;0.73;;;0.73;;
16784;SDS011;8509;52.178;5.404;2023-10-19T06:32:56;4.03;;;0.85;;
16784;SDS011;8509;52.178;5.404;2023-10-19T06:35:26;1.98;;;1.00;;
16784;SDS011;8509;52.178;5.404;2023-10-19T06:37:53;2.70;;;0.90;;
16784;SDS011;8509;52.178;5.404;2023-10-19T06:40:22;1.85;;;1.35;;
16784;SDS011;8509;52.178;5.404;2023-10-19T06:42:48;5.32;;;1.73;;
16784;SDS011;8509;52.178;5.404;2023-10-19T06:45:15;2.72;;;0.95;;
16784;SDS011;8509;52.178;5.404;2023-10-19T06:47:45;0.77;;;0.77;;
16784;SDS011;8509;52.178;5.404;2023-10-19T06:50:12;2.25;;;1.50;;
16784;SDS011;8509;52.178;5.404;2023-10-19T06:52:40;1.35;;;1.25;;
16784;SDS011;8509;52.178;5.404;2023-10-19T06:55:07;1.42;;;0.90;;
16784;SDS011;8509;52.178;5.404;2023-10-19T06:57:48;1.80;;;1.08;;
16784;SDS011;8509;52.178;5.404;2023-10-19T07:00:15;1.65;;;0.80;;
16784;SDS011;8509;52.178;5.404;2023-10-19T07:02:45;1.10;;;1.00;;
16784;SDS011;8509;52.178;5.404;2023-10-19T07:05:12;5.30;;;1.70;;
16784;SDS011;8509;52.178;5.404;2023-10-19T07:07:40;2.70;;;1.13;;
16784;SDS011;8509;52.178;5.404;2023-10-19T07:10:10;2.33;;;1.38;;
16784;SDS011;8509;52.178;5.404;2023-10-19T07:12:40;1.23;;;1.05;;
16784;SDS011;8509;52.178;5.404;2023-10-19T07:15:08;3.67;;;1.95;;
16784;SDS011;8509;52.178;5.404;2023-10-19T07:17:39;3.53;;;1.00;;
16784;SDS011;8509;52.178;5.404;2023-10-19T07:20:08;2.60;;;1.15;;
16784;SDS011;8509;52.178;5.404;2023-10-19T07:25:44;3.58;;;1.10;;
16784;SDS011;8509;52.178;5.404;2023-10-19T07:28:12;2.33;;;1.38;;
16784;SDS011;8509;52.178;5.404;2023-10-19T07:30:39;1.20;;;1.10;;
16784;SDS011;8509;52.178;5.404;2023-10-19T07:33:06;3.95;;;1.27;;
16784;SDS011;8509;52.178;5.404;2023-10-19T07:35:36;9.40;;;1.80;;
16784;SDS011;8509;52.178;5.404;2023-10-19T07:38:07;1.98;;;1.67;;
16784;SDS011;8509;52.178;5.404;2023-10-19T07:40:33;1.52;;;1.13;;
16784;SDS011;8509;52.178;5.404;2023-10-19T07:43:00;2.50;;;1.17;;
16784;SDS011;8509;52.178;5.404;2023-10-19T07:45:26;3.13;;;1.25;;
16784;SDS011;8509;52.178;5.404;2023-10-19T07:47:52;2.28;;;1.50;;
16784;SDS011;8509;52.178;5.404;2023-10-19T07:50:18;3.45;;;1.33;;
16784;SDS011;8509;52.178;5.404;2023-10-19T07:52:45;0.80;;;0.80;;
16784;SDS011;8509;52.178;5.404;2023-10-19T07:55:15;3.35;;;1.45;;
16784;SDS011;8509;52.178;5.404;2023-10-19T07:57:42;7.60;;;1.25;;
16784;SDS011;8509;52.178;5.404;2023-10-19T08:00:09;1.23;;;1.10;;
16784;SDS011;8509;52.178;5.404;2023-10-19T08:02:38;3.38;;;1.40;;
16784;SDS011;8509;52.178;5.404;2023-10-19T08:05:06;1.60;;;0.98;;
16784;SDS011;8509;52.178;5.404;2023-10-19T08:07:36;4.30;;;1.17;;
16784;SDS011;8509;52.178;5.404;2023-10-19T08:10:05;3.22;;;2.00;;
16784;SDS011;8509;52.178;5.404;2023-10-19T08:12:34;2.10;;;1.13;;
16784;SDS011;8509;52.178;5.404;2023-10-19T08:15:01;2.30;;;1.08;;
16784;SDS011;8509;52.178;5.404;2023-10-19T08:17:27;2.67;;;1.15;;
16784;SDS011;8509;52.178;5.404;2023-10-19T08:19:52;1.60;;;1.08;;
16784;SDS011;8509;52.178;5.404;2023-10-19T08:22:18;4.63;;;1.50;;
16784;SDS011;8509;52.178;5.404;2023-10-19T08:24:44;2.03;;;1.33;;
16784;SDS011;8509;52.178;5.404;2023-10-19T08:27:11;9.95;;;1.45;;
16784;SDS011;8509;52.178;5.404;2023-10-19T08:29:38;5.40;;;1.10;;
16784;SDS011;8509;52.178;5.404;2023-10-19T08:32:03;2.45;;;1.30;;
16784;SDS011;8509;52.178;5.404;2023-10-19T08:34:29;4.95;;;1.63;;
16784;SDS011;8509;52.178;5.404;2023-10-19T08:37:01;8.20;;;1.67;;
16784;SDS011;8509;52.178;5.404;2023-10-19T08:39:27;2.95;;;1.55;;
16784;SDS011;8509;52.178;5.404;2023-10-19T08:42:00;2.92;;;1.42;;
16784;SDS011;8509;52.178;5.404;2023-10-19T08:44:30;3.53;;;1.27;;
16784;SDS011;8509;52.178;5.404;2023-10-19T08:47:00;2.17;;;1.17;;
16784;SDS011;8509;52.178;5.404;2023-10-19T08:49:26;4.43;;;1.33;;
16784;SDS011;8509;52.178;5.404;2023-10-19T08:51:59;1.23;;;1.10;;
16784;SDS011;8509;52.178;5.404;2023-10-19T08:54:29;2.00;;;1.23;;
16784;SDS011;8509;52.178;5.404;2023-10-19T08:56:54;7.82;;;1.50;;
16784;SDS011;8509;52.178;5.404;2023-10-19T08:59:20;1.40;;;0.90;;
16784;SDS011;8509;52.178;5.404;2023-10-19T09:01:46;6.50;;;1.27;;
16784;SDS011;8509;52.178;5.404;2023-10-19T09:04:14;2.58;;;1.65;;
16784;SDS011;8509;52.178;5.404;2023-10-19T09:06:41;7.07;;;1.20;;
16784;SDS011;8509;52.178;5.404;2023-10-19T09:09:10;3.13;;;1.30;;
16784;SDS011;8509;52.178;5.404;2023-10-19T09:11:45;8.38;;;1.02;;
16784;SDS011;8509;52.178;5.404;2023-10-19T09:14:17;6.60;;;1.75;;
16784;SDS011;8509;52.178;5.404;2023-10-19T09:17:06;1.75;;;1.48;;
16784;SDS011;8509;52.178;5.404;2023-10-19T09:19:35;4.30;;;1.58;;
16784;SDS011;8509;52.178;5.404;2023-10-19T09:22:02;2.88;;;1.58;;
16784;SDS011;8509;52.178;5.404;2023-10-19T09:24:42;1.38;;;1.27;;
16784;SDS011;8509;52.178;5.404;2023-10-19T09:27:08;1.40;;;1.20;;
16784;SDS011;8509;52.178;5.404;2023-10-19T09:29:33;4.00;;;1.27;;
16784;SDS011;8509;52.178;5.404;2023-10-19T09:31:59;1.88;;;1.17;;
16784;SDS011;8509;52.178;5.404;2023-10-19T09:34:29;1.80;;;1.30;;
16784;SDS011;8509;52.178;5.404;2023-10-19T09:36:59;4.95;;;1.45;;
16784;SDS011;8509;52.178;5.404;2023-10-19T09:39:28;1.48;;;1.13;;
16784;SDS011;8509;52.178;5.404;2023-10-19T09:42:09;4.80;;;1.27;;
16784;SDS011;8509;52.178;5.404;2023-10-19T09:44:43;1.52;;;1.10;;
16784;SDS011;8509;52.178;5.404;2023-10-19T09:47:10;4.03;;;1.15;;
16784;SDS011;8509;52.178;5.404;2023-10-19T09:50:02;1.38;;;1.20;;
16784;SDS011;8509;52.178;5.404;2023-10-19T09:52:31;1.25;;;1.10;;
16784;SDS011;8509;52.178;5.404;2023-10-19T09:54:59;3.90;;;1.38;;
16784;SDS011;8509;52.178;5.404;2023-10-19T09:57:34;2.33;;;0.88;;
16784;SDS011;8509;52.178;5.404;2023-10-19T10:00:09;2.70;;;1.00;;
16784;SDS011;8509;52.178;5.404;2023-10-19T10:02:38;1.20;;;0.65;;
16784;SDS011;8509;52.178;5.404;2023-10-19T10:10:42;4.47;;;1.00;;
16784;SDS011;8509;52.178;5.404;2023-10-19T10:15:54;3.95;;;0.90;;
16784;SDS011;8509;52.178;5.404;2023-10-19T10:18:23;3.53;;;1.52;;
16784;SDS011;8509;52.178;5.404;2023-10-19T10:23:41;0.90;;;0.90;;
16784;SDS011;8509;52.178;5.404;2023-10-19T10:26:14;1.92;;;0.88;;
16784;SDS011;8509;52.178;5.404;2023-10-19T10:28:41;0.60;;;0.60;;
16784;SDS011;8509;52.178;5.404;2023-10-19T10:31:22;1.88;;;1.10;;
16784;SDS011;8509;52.178;5.404;2023-10-19T10:36:19;0.75;;;0.75;;
16784;SDS011;8509;52.178;5.404;2023-10-19T10:38:49;4.13;;;1.75;;
16784;SDS011;8509;52.178;5.404;2023-10-19T10:41:25;1.88;;;1.35;;
16784;SDS011;8509;52.178;5.404;2023-10-19T10:43:54;5.25;;;1.38;;
16784;SDS011;8509;52.178;5.404;2023-10-19T10:46:25;0.70;;;0.70;;
16784;SDS011;8509;52.178;5.404;2023-10-19T10:48:52;1.52;;;1.17;;
16784;SDS011;8509;52.178;5.404;2023-10-19T10:51:23;3.78;;;1.52;;
16784;SDS011;8509;52.178;5.404;2023-10-19T10:53:52;2.67;;;0.93;;
16784;SDS011;8509;52.178;5.404;2023-10-19T10:56:19;3.05;;;0.88;;
16784;SDS011;8509;52.178;5.404;2023-10-19T10:58:46;3.15;;;0.90;;
16784;SDS011;8509;52.178;5.404;2023-10-19T11:01:12;4.65;;;1.10;;
16784;SDS011;8509;52.178;5.404;2023-10-19T11:03:40;1.77;;;0.82;;
16784;SDS011;8509;52.178;5.404;2023-10-19T11:06:07;2.03;;;0.90;;
16784;SDS011;8509;52.178;5.404;2023-10-19T11:08:37;1.13;;;0.80;;
16784;SDS011;8509;52.178;5.404;2023-10-19T11:11:07;3.45;;;1.23;;
16784;SDS011;8509;52.178;5.404;2023-10-19T11:13:36;0.60;;;0.60;;
16784;SDS011;8509;52.178;5.404;2023-10-19T11:16:03;2.60;;;0.88;;
16784;SDS011;8509;52.178;5.404;2023-10-19T11:18:32;1.70;;;1.00;;
16784;SDS011;8509;52.178;5.404;2023-10-19T11:21:05;2.70;;;0.88;;
16784;SDS011;8509;52.178;5.404;2023-10-19T11:23:35;0.88;;;0.85;;
16784;SDS011;8509;52.178;5.404;2023-10-19T11:26:01;1.42;;;0.75;;
16784;SDS011;8509;52.178;5.404;2023-10-19T11:28:30;4.38;;;1.30;;
16784;SDS011;8509;52.178;5.404;2023-10-19T11:34:02;1.48;;;0.82;;
16784;SDS011;8509;52.178;5.404;2023-10-19T11:36:29;1.60;;;0.60;;
16784;SDS011;8509;52.178;5.404;2023-10-19T11:38:55;1.08;;;0.73;;
16784;SDS011;8509;52.178;5.404;2023-10-19T11:41:21;0.60;;;0.60;;
16784;SDS011;8509;52.178;5.404;2023-10-19T11:43:48;0.95;;;0.73;;
16784;SDS011;8509;52.178;5.404;2023-10-19T11:46:15;0.70;;;0.70;;
16784;SDS011;8509;52.178;5.404;2023-10-19T11:48:48;1.58;;;0.65;;
16784;SDS011;8509;52.178;5.404;2023-10-19T11:51:13;0.80;;;0.55;;
16784;SDS011;8509;52.178;5.404;2023-10-19T11:53:40;4.57;;;1.55;;
16784;SDS011;8509;52.178;5.404;2023-10-19T11:56:08;0.82;;;0.65;;
16784;SDS011;8509;52.178;5.404;2023-10-19T11:58:36;2.22;;;0.88;;
16784;SDS011;8509;52.178;5.404;2023-10-19T12:01:05;2.47;;;1.05;;
16784;SDS011;8509;52.178;5.404;2023-10-19T12:03:33;1.30;;;0.75;;
16784;SDS011;8509;52.178;5.404;2023-10-19T12:06:05;4.15;;;1.67;;
16784;SDS011;8509;52.178;5.404;2023-10-19T12:08:35;1.98;;;0.43;;
16784;SDS011;8509;52.178;5.404;2023-10-19T12:11:03;0.93;;;0.43;;
16784;SDS011;8509;52.178;5.404;2023-10-19T12:13:29;5.57;;;1.30;;
16784;SDS011;8509;52.178;5.404;2023-10-19T12:15:56;1.63;;;1.30;;
16784;SDS011;8509;52.178;5.404;2023-10-19T12:18:23;5.40;;;0.60;;
16784;SDS011;8509;52.178;5.404;2023-10-19T12:20:53;1.50;;;0.57;;
16784;SDS011;8509;52.178;5.404;2023-10-19T12:23:22;0.70;;;0.70;;
16784;SDS011;8509;52.178;5.404;2023-10-19T12:25:50;0.68;;;0.65;;
16784;SDS011;8509;52.178;5.404;2023-10-19T12:28:17;2.33;;;0.40;;
16784;SDS011;8509;52.178;5.404;2023-10-19T12:30:43;1.10;;;0.43;;
16784;SDS011;8509;52.178;5.404;2023-10-19T12:33:09;0.38;;;0.38;;
16784;SDS011;8509;52.178;5.404;2023-10-19T12:35:46;0.82;;;0.55;;
16784;SDS011;8509;52.178;5.404;2023-10-19T12:38:18;2.50;;;0.50;;
16784;SDS011;8509;52.178;5.404;2023-10-19T12:40:48;2.08;;;0.70;;
16784;SDS011;8509;52.178;5.404;2023-10-19T12:43:23;0.90;;;0.77;;
16784;SDS011;8509;52.178;5.404;2023-10-19T12:45:50;0.85;;;0.60;;
16784;SDS011;8509;52.178;5.404;2023-10-19T12:48:18;1.95;;;0.65;;
16784;SDS011;8509;52.178;5.404;2023-10-19T12:50:45;2.38;;;1.10;;
16784;SDS011;8509;52.178;5.404;2023-10-19T12:53:11;2.17;;;0.43;;
16784;SDS011;8509;52.178;5.404;2023-10-19T12:55:37;2.80;;;0.80;;
16784;SDS011;8509;52.178;5.404;2023-10-19T12:58:03;0.85;;;0.55;;
16784;SDS011;8509;52.178;5.404;2023-10-19T13:00:34;0.63;;;0.50;;
16784;SDS011;8509;52.178;5.404;2023-10-19T13:03:07;0.50;;;0.50;;
16784;SDS011;8509;52.178;5.404;2023-10-19T13:05:33;0.47;;;0.47;;
16784;SDS011;8509;52.178;5.404;2023-10-19T13:07:59;0.93;;;0.65;;
16784;SDS011;8509;52.178;5.404;2023-10-19T13:10:28;0.65;;;0.63;;
16784;SDS011;8509;52.178;5.404;2023-10-19T13:13:01;1.02;;;0.70;;
16784;SDS011;8509;52.178;5.404;2023-10-19T13:15:31;0.98;;;0.70;;
16784;SDS011;8509;52.178;5.404;2023-10-19T13:17:59;1.50;;;0.65;;
16784;SDS011;8509;52.178;5.404;2023-10-19T13:20:26;4.40;;;0.80;;
16784;SDS011;8509;52.178;5.404;2023-10-19T13:22:53;9.50;;;1.60;;
16784;SDS011;8509;52.178;5.404;2023-10-19T13:25:21;0.85;;;0.40;;
16784;SDS011;8509;52.178;5.404;2023-10-19T13:28:04;1.00;;;0.50;;
16784;SDS011;8509;52.178;5.404;2023-10-19T13:30:35;1.08;;;0.98;;
16784;SDS011;8509;52.178;5.404;2023-10-19T13:33:03;1.95;;;0.55;;
16784;SDS011;8509;52.178;5.404;2023-10-19T13:35:39;3.08;;;1.00;;
16784;SDS011;8509;52.178;5.404;2023-10-19T13:38:07;1.27;;;0.70;;
16784;SDS011;8509;52.178;5.404;2023-10-19T13:40:34;2.15;;;1.00;;
16784;SDS011;8509;52.178;5.404;2023-10-19T13:43:03;2.67;;;0.90;;
16784;SDS011;8509;52.178;5.404;2023-10-19T13:45:31;2.40;;;1.05;;
16784;SDS011;8509;52.178;5.404;2023-10-19T13:47:59;1.25;;;0.75;;
16784;SDS011;8509;52.178;5.404;2023-10-19T13:50:29;1.80;;;0.82;;
16784;SDS011;8509;52.178;5.404;2023-10-19T13:52:55;6.45;;;1.63;;
16784;SDS011;8509;52.178;5.404;2023-10-19T13:55:25;1.70;;;0.90;;
16784;SDS011;8509;52.178;5.404;2023-10-19T13:57:51;1.63;;;1.52;;
16784;SDS011;8509;52.178;5.404;2023-10-19T14:00:17;0.95;;;0.70;;
16784;SDS011;8509;52.178;5.404;2023-10-19T14:02:55;2.47;;;0.70;;
16784;SDS011;8509;52.178;5.404;2023-10-19T14:05:25;1.77;;;1.13;;
16784;SDS011;8509;52.178;5.404;2023-10-19T14:07:52;2.10;;;1.02;;
16784;SDS011;8509;52.178;5.404;2023-10-19T14:10:18;3.33;;;1.15;;
16784;SDS011;8509;52.178;5.404;2023-10-19T14:12:47;4.50;;;1.60;;
16784;SDS011;8509;52.178;5.404;2023-10-19T14:15:17;1.50;;;0.80;;
16784;SDS011;8509;52.178;5.404;2023-10-19T14:17:44;4.65;;;1.10;;
16784;SDS011;8509;52.178;5.404;2023-10-19T14:20:12;1.73;;;0.80;;
16784;SDS011;8509;52.178;5.404;2023-10-19T14:22:39;10.65;;;1.25;;
16784;SDS011;8509;52.178;5.404;2023-10-19T14:25:06;2.22;;;0.90;;
16784;SDS011;8509;52.178;5.404;2023-10-19T14:27:37;2.23;;;1.00;;
16784;SDS011;8509;52.178;5.404;2023-10-19T14:30:09;3.05;;;0.90;;
16784;SDS011;8509;52.178;5.404;2023-10-19T14:32:44;1.92;;;1.38;;
16784;SDS011;8509;52.178;5.404;2023-10-19T14:35:14;1.77;;;1.50;;
16784;SDS011;8509;52.178;5.404;2023-10-19T14:37:42;4.20;;;1.00;;
16784;SDS011;8509;52.178;5.404;2023-10-19T14:40:15;3.67;;;1.37;;
16784;SDS011;8509;52.178;5.404;2023-10-19T14:42:54;5.80;;;1.88;;
16784;SDS011;8509;52.178;5.404;2023-10-19T14:45:22;4.75;;;2.15;;
16784;SDS011;8509;52.178;5.404;2023-10-19T14:47:51;4.05;;;1.25;;
16784;SDS011;8509;52.178;5.404;2023-10-19T14:50:17;3.05;;;1.27;;
16784;SDS011;8509;52.178;5.404;2023-10-19T14:52:44;1.98;;;1.10;;
16784;SDS011;8509;52.178;5.404;2023-10-19T14:55:12;4.78;;;1.23;;
16784;SDS011;8509;52.178;5.404;2023-10-19T14:57:40;1.70;;;1.10;;
16784;SDS011;8509;52.178;5.404;2023-10-19T15:00:08;1.80;;;1.38;;
16784;SDS011;8509;52.178;5.404;2023-10-19T15:02:55;3.75;;;1.30;;
16784;SDS011;8509;52.178;5.404;2023-10-19T15:05:26;1.85;;;0.93;;
16784;SDS011;8509;52.178;5.404;2023-10-19T15:07:53;1.17;;;1.10;;
16784;SDS011;8509;52.178;5.404;2023-10-19T15:10:23;2.05;;;1.17;;
16784;SDS011;8509;52.178;5.404;2023-10-19T15:12:55;3.80;;;0.82;;
16784;SDS011;8509;52.178;5.404;2023-10-19T15:15:28;2.83;;;1.35;;
16784;SDS011;8509;52.178;5.404;2023-10-19T15:17:54;5.97;;;1.92;;
16784;SDS011;8509;52.178;5.404;2023-10-19T15:20:21;3.92;;;2.03;;
16784;SDS011;8509;52.178;5.404;2023-10-19T15:22:50;3.70;;;1.75;;
16784;SDS011;8509;52.178;5.404;2023-10-19T15:25:16;6.03;;;2.35;;
16784;SDS011;8509;52.178;5.404;2023-10-19T15:27:46;4.20;;;1.35;;
16784;SDS011;8509;52.178;5.404;2023-10-19T15:30:13;4.68;;;1.50;;
16784;SDS011;8509;52.178;5.404;2023-10-19T15:32:40;4.25;;;1.33;;